Time;durP1;ratioP1;P1;durP2;ratioP2;P2;SDS_P1;SDS_P2;PMS_P1;PMS_P2;Temp;Humidity;BMP_temperature;BMP_pressure;BME280_temperature;BME280_humidity;BME280_pressure;Samples;Min_cycle;Max_cycle;Signal;HPM_P1;HPM_P2
2022/05/17 00:00:41;;;;;;;4.93;3.55;;;;;;;;;;4972084;28;20492;-63
2022/05/17 00:03:07;;;;;;;5.55;3.35;;;;;;;;;;4971209;28;20438;-63
2022/05/17 00:05:32;;;;;;;6.97;3.60;;;;;;;;;;4971282;28;20326;-63
2022/05/17 00:07:57;;;;;;;7.28;3.28;;;;;;;;;;4971969;28;20432;-62
2022/05/17 00:10:24;;;;;;;6.97;3.25;;;;;;;;;;4970718;28;20377;-63
2022/05/17 00:12:50;;;;;;;5.93;3.90;;;;;;;;;;4953288;28;20372;-63
2022/05/17 00:15:16;;;;;;;6.63;3.45;;;;;;;;;;4970514;28;20437;-63
2022/05/17 00:17:42;;;;;;;4.78;2.97;;;;;;;;;;4971280;28;20310;-63
2022/05/17 00:20:08;;;;;;;4.10;2.85;;;;;;;;;;4968593;28;20441;-63
2022/05/17 00:22:33;;;;;;;4.40;3.13;;;;;;;;;;4971329;28;20338;-63
2022/05/17 00:24:59;;;;;;;6.00;2.78;;;;;;;;;;4951680;28;20515;-62
2022/05/17 00:27:24;;;;;;;5.15;3.38;;;;;;;;;;4970772;28;20437;-63
2022/05/17 00:29:50;;;;;;;7.43;4.07;;;;;;;;;;4970545;28;20053;-63
2022/05/17 00:32:15;;;;;;;5.55;2.80;;;;;;;;;;4970624;28;20368;-63
2022/05/17 00:34:41;;;;;;;4.75;2.63;;;;;;;;;;4971089;28;20349;-62
2022/05/17 00:37:06;;;;;;;5.20;3.10;;;;;;;;;;4970431;28;20491;-65
2022/05/17 00:39:32;;;;;;;3.75;2.55;;;;;;;;;;4970543;28;20528;-63
2022/05/17 00:41:58;;;;;;;4.90;2.95;;;;;;;;;;4970268;28;20025;-63
2022/05/17 00:47:19;;;;;;;4.85;2.85;;;;;;;;;;4970741;28;20395;-63
2022/05/17 00:49:53;;;;;;;4.63;2.67;;;;;;;;;;4970150;28;20447;-63
2022/05/17 00:52:25;;;;;;;5.15;2.83;;;;;;;;;;4971232;28;20483;-63
2022/05/17 00:54:51;;;;;;;6.22;2.80;;;;;;;;;;4971250;28;20523;-63
2022/05/17 00:57:33;;;;;;;5.90;3.15;;;;;;;;;;4953375;28;20475;-62
2022/05/17 01:00:03;;;;;;;4.00;2.50;;;;;;;;;;4963206;28;20454;-63
2022/05/17 01:02:29;;;;;;;5.03;2.72;;;;;;;;;;4951019;28;20034;-63
2022/05/17 01:04:55;;;;;;;4.35;2.75;;;;;;;;;;4916891;28;20381;-62
2022/05/17 01:07:24;;;;;;;5.00;3.13;;;;;;;;;;4950192;28;20349;-63
2022/05/17 01:09:49;;;;;;;4.38;2.97;;;;;;;;;;4933355;28;20450;-63
2022/05/17 01:12:15;;;;;;;6.20;2.78;;;;;;;;;;4950511;28;20342;-63
2022/05/17 01:15:00;;;;;;;5.38;2.95;;;;;;;;;;4949792;28;20318;-62
2022/05/17 01:17:29;;;;;;;3.35;2.42;;;;;;;;;;4950763;28;20025;-62
2022/05/17 01:19:54;;;;;;;3.05;2.05;;;;;;;;;;4950819;28;20018;-62
2022/05/17 01:22:20;;;;;;;3.72;2.50;;;;;;;;;;4951116;28;20604;-62
2022/05/17 01:24:45;;;;;;;3.97;2.40;;;;;;;;;;4950072;28;20400;-63
2022/05/17 01:27:28;;;;;;;4.00;2.28;;;;;;;;;;4950039;28;20447;-62
2022/05/17 01:29:54;;;;;;;4.28;2.40;;;;;;;;;;4949836;28;20052;-62
2022/05/17 01:32:20;;;;;;;4.80;2.45;;;;;;;;;;4949750;28;20049;-63
2022/05/17 01:34:46;;;;;;;3.35;2.10;;;;;;;;;;4932895;28;20417;-62
2022/05/17 01:37:12;;;;;;;3.55;2.38;;;;;;;;;;4949632;28;20377;-62
2022/05/17 01:39:38;;;;;;;3.03;2.20;;;;;;;;;;4950080;28;20118;-63
2022/05/17 01:42:04;;;;;;;3.45;2.03;;;;;;;;;;4950040;28;20439;-62
2022/05/17 01:44:29;;;;;;;3.10;2.03;;;;;;;;;;4949852;28;20453;-62
2022/05/17 01:46:55;;;;;;;3.08;2.17;;;;;;;;;;4949585;28;20461;-64
2022/05/17 01:49:20;;;;;;;3.70;2.08;;;;;;;;;;4949891;28;20434;-62
2022/05/17 01:51:45;;;;;;;5.03;2.28;;;;;;;;;;4949749;28;20445;-62
2022/05/17 01:54:11;;;;;;;4.53;2.20;;;;;;;;;;4949546;28;20030;-62
2022/05/17 01:56:36;;;;;;;2.92;2.08;;;;;;;;;;4950659;28;20116;-63
2022/05/17 01:59:01;;;;;;;4.78;2.50;;;;;;;;;;4950172;28;20291;-62
2022/05/17 02:01:27;;;;;;;4.18;2.10;;;;;;;;;;4949251;28;20499;-62
2022/05/17 02:03:52;;;;;;;4.45;2.40;;;;;;;;;;4949477;28;20034;-62
2022/05/17 02:06:18;;;;;;;3.42;2.13;;;;;;;;;;4949466;28;20542;-62
2022/05/17 02:08:44;;;;;;;3.38;2.05;;;;;;;;;;4949751;28;20466;-63
2022/05/17 02:11:09;;;;;;;3.80;2.05;;;;;;;;;;4950422;28;20670;-62
2022/05/17 02:13:35;;;;;;;4.13;2.42;;;;;;;;;;4949797;28;20375;-63
2022/05/17 02:16:04;;;;;;;3.47;1.80;;;;;;;;;;4949725;28;20482;-62
2022/05/17 02:18:29;;;;;;;3.67;2.42;;;;;;;;;;4950086;28;20382;-63
2022/05/17 02:20:54;;;;;;;2.70;2.10;;;;;;;;;;4949390;28;20417;-63
2022/05/17 02:23:19;;;;;;;2.70;1.55;;;;;;;;;;4949210;28;20508;-63
2022/05/17 02:25:46;;;;;;;2.85;1.90;;;;;;;;;;4949459;28;20456;-62
2022/05/17 02:28:13;;;;;;;3.15;2.15;;;;;;;;;;4949612;28;20052;-62
2022/05/17 02:30:41;;;;;;;3.50;1.98;;;;;;;;;;4949611;28;20424;-63
2022/05/17 02:33:06;;;;;;;2.33;1.67;;;;;;;;;;4949472;28;20438;-63
2022/05/17 02:35:31;;;;;;;4.03;2.08;;;;;;;;;;4950633;28;20378;-63
2022/05/17 02:37:57;;;;;;;3.38;2.00;;;;;;;;;;4949403;28;20438;-63
2022/05/17 02:40:22;;;;;;;3.17;1.75;;;;;;;;;;4949488;28;20385;-62
2022/05/17 02:42:47;;;;;;;3.20;1.50;;;;;;;;;;4950491;28;20113;-62
2022/05/17 02:45:13;;;;;;;2.92;1.85;;;;;;;;;;4949623;28;20437;-62
2022/05/17 02:47:38;;;;;;;4.20;2.00;;;;;;;;;;4949924;28;20325;-62
2022/05/17 02:50:04;;;;;;;5.45;2.38;;;;;;;;;;4953926;28;20440;-63
2022/05/17 02:52:29;;;;;;;4.13;2.00;;;;;;;;;;4954040;28;20349;-62
2022/05/17 02:54:55;;;;;;;1.42;1.30;;;;;;;;;;4954342;28;20367;-63
2022/05/17 02:57:20;;;;;;;3.28;1.83;;;;;;;;;;4952575;28;20430;-63
2022/05/17 02:59:45;;;;;;;3.55;1.85;;;;;;;;;;4952899;28;20093;-63
2022/05/17 03:02:11;;;;;;;2.67;1.55;;;;;;;;;;4952484;28;20445;-63
2022/05/17 03:04:36;;;;;;;2.78;1.63;;;;;;;;;;4952816;28;20463;-64
2022/05/17 03:07:01;;;;;;;2.45;1.50;;;;;;;;;;4954290;28;20397;-63
2022/05/17 03:09:27;;;;;;;2.13;1.42;;;;;;;;;;4952675;28;20419;-63
2022/05/17 03:11:52;;;;;;;2.90;1.85;;;;;;;;;;4952380;28;20042;-63
2022/05/17 03:14:18;;;;;;;2.67;1.55;;;;;;;;;;4952773;28;20030;-62
2022/05/17 03:16:43;;;;;;;2.20;1.73;;;;;;;;;;4952480;28;20334;-63
2022/05/17 03:19:10;;;;;;;3.20;1.77;;;;;;;;;;4953161;28;20463;-63
2022/05/17 03:21:35;;;;;;;2.10;1.40;;;;;;;;;;4953127;28;20513;-62
2022/05/17 03:24:01;;;;;;;4.25;1.75;;;;;;;;;;4952704;28;20377;-63
2022/05/17 03:26:28;;;;;;;3.50;1.90;;;;;;;;;;4953273;28;20408;-63
2022/05/17 03:28:54;;;;;;;2.42;1.63;;;;;;;;;;4952178;28;20626;-64
2022/05/17 03:31:20;;;;;;;3.70;1.95;;;;;;;;;;4952767;28;20409;-64
2022/05/17 03:33:45;;;;;;;2.38;1.73;;;;;;;;;;4952096;28;20030;-61
2022/05/17 03:36:10;;;;;;;3.42;1.85;;;;;;;;;;4951890;28;20457;-62
2022/05/17 03:38:37;;;;;;;2.13;1.70;;;;;;;;;;4952713;28;20505;-63
2022/05/17 03:41:03;;;;;;;3.90;1.48;;;;;;;;;;4952140;28;20049;-63
2022/05/17 03:43:29;;;;;;;4.18;1.50;;;;;;;;;;4951984;28;20329;-63
2022/05/17 03:45:55;;;;;;;2.30;1.40;;;;;;;;;;4951899;28;20468;-63
2022/05/17 03:48:21;;;;;;;2.70;1.70;;;;;;;;;;4952330;28;20392;-62
2022/05/17 03:50:47;;;;;;;2.67;1.75;;;;;;;;;;4951970;28;20384;-63
2022/05/17 03:53:13;;;;;;;2.95;1.73;;;;;;;;;;4951758;28;20318;-63
2022/05/17 03:55:38;;;;;;;1.75;1.15;;;;;;;;;;4951708;28;20117;-62
2022/05/17 03:58:03;;;;;;;2.00;1.60;;;;;;;;;;4952317;28;20496;-63
2022/05/17 04:00:28;;;;;;;2.67;1.65;;;;;;;;;;4951359;28;20389;-63
2022/05/17 04:02:54;;;;;;;2.65;1.33;;;;;;;;;;4951633;28;20433;-62
2022/05/17 04:05:19;;;;;;;2.03;1.55;;;;;;;;;;4951186;28;20381;-62
2022/05/17 04:07:45;;;;;;;2.25;1.67;;;;;;;;;;4934527;28;20350;-62
2022/05/17 04:10:12;;;;;;;2.30;1.65;;;;;;;;;;4951519;28;20337;-63
2022/05/17 04:12:38;;;;;;;3.78;1.50;;;;;;;;;;4952046;28;20377;-63
2022/05/17 04:15:04;;;;;;;3.03;1.65;;;;;;;;;;4951454;28;20026;-63
2022/05/17 04:17:29;;;;;;;6.05;1.30;;;;;;;;;;4951460;28;20345;-62
2022/05/17 04:19:55;;;;;;;2.92;1.48;;;;;;;;;;4951264;28;20341;-61
2022/05/17 04:22:20;;;;;;;2.28;1.30;;;;;;;;;;4951163;28;20544;-63
2022/05/17 04:24:45;;;;;;;2.42;1.27;;;;;;;;;;4951434;28;20432;-64
2022/05/17 04:27:14;;;;;;;2.70;1.48;;;;;;;;;;4951395;28;20396;-62
2022/05/17 04:29:41;;;;;;;2.67;1.38;;;;;;;;;;4952306;28;20037;-63
2022/05/17 04:32:07;;;;;;;2.72;1.20;;;;;;;;;;4950798;28;20461;-62
2022/05/17 04:34:32;;;;;;;1.85;1.23;;;;;;;;;;4950895;28;20619;-63
2022/05/17 04:36:58;;;;;;;3.20;1.60;;;;;;;;;;4950683;28;20026;-62
2022/05/17 04:39:24;;;;;;;2.67;1.45;;;;;;;;;;4950992;28;20508;-62
2022/05/17 04:41:50;;;;;;;2.08;1.20;;;;;;;;;;4951191;28;20084;-63
2022/05/17 04:44:15;;;;;;;1.80;1.20;;;;;;;;;;4952275;28;20477;-63
2022/05/17 04:46:40;;;;;;;2.20;1.35;;;;;;;;;;4951347;28;20373;-62
2022/05/17 04:49:07;;;;;;;3.03;1.25;;;;;;;;;;4950971;28;20400;-63
2022/05/17 04:51:33;;;;;;;1.65;1.25;;;;;;;;;;4952592;28;20365;-62
2022/05/17 04:53:59;;;;;;;3.13;1.20;;;;;;;;;;4951091;28;20104;-63
2022/05/17 04:56:25;;;;;;;3.58;1.42;;;;;;;;;;4950397;28;20162;-63
2022/05/17 04:58:50;;;;;;;4.53;1.20;;;;;;;;;;4950888;28;20037;-63
2022/05/17 05:01:16;;;;;;;2.15;1.60;;;;;;;;;;4950390;28;20022;-63
2022/05/17 05:03:41;;;;;;;2.40;1.20;;;;;;;;;;4950500;28;20148;-62
2022/05/17 05:06:06;;;;;;;2.65;1.23;;;;;;;;;;4950205;28;20441;-63
2022/05/17 05:08:32;;;;;;;3.92;1.60;;;;;;;;;;4950638;28;20409;-63
2022/05/17 05:10:58;;;;;;;3.05;1.48;;;;;;;;;;4950257;28;20495;-63
2022/05/17 05:13:24;;;;;;;2.00;1.40;;;;;;;;;;4950628;28;20365;-63
2022/05/17 05:15:50;;;;;;;1.48;1.30;;;;;;;;;;4950148;28;20573;-62
2022/05/17 05:18:15;;;;;;;2.13;1.25;;;;;;;;;;4950993;28;20314;-63
2022/05/17 05:20:42;;;;;;;3.88;1.58;;;;;;;;;;4950587;28;20361;-62
2022/05/17 05:23:07;;;;;;;4.07;1.50;;;;;;;;;;4951432;28;20037;-62
2022/05/17 05:25:34;;;;;;;2.90;1.27;;;;;;;;;;4950819;28;20528;-62
2022/05/17 05:27:59;;;;;;;2.10;1.33;;;;;;;;;;4950200;28;20398;-62
2022/05/17 05:30:25;;;;;;;2.65;1.50;;;;;;;;;;4950151;28;20350;-62
2022/05/17 05:32:50;;;;;;;1.27;1.15;;;;;;;;;;4950213;28;20422;-64
2022/05/17 05:35:17;;;;;;;1.95;1.20;;;;;;;;;;4949873;28;20384;-63
2022/05/17 05:37:42;;;;;;;3.95;1.40;;;;;;;;;;4950057;28;20116;-63
2022/05/17 05:40:10;;;;;;;2.38;1.20;;;;;;;;;;4949945;28;20052;-62
2022/05/17 05:42:35;;;;;;;2.88;1.52;;;;;;;;;;4950726;28;20389;-62
2022/05/17 05:45:01;;;;;;;2.30;1.00;;;;;;;;;;4950575;28;20049;-62
2022/05/17 05:47:27;;;;;;;1.75;1.20;;;;;;;;;;4949977;28;20437;-62
2022/05/17 05:49:52;;;;;;;2.67;1.45;;;;;;;;;;4949885;28;20440;-63
2022/05/17 05:52:18;;;;;;;2.53;1.40;;;;;;;;;;4949991;28;20489;-63
2022/05/17 05:54:44;;;;;;;2.88;1.63;;;;;;;;;;4932261;28;20504;-63
2022/05/17 05:57:09;;;;;;;1.15;0.90;;;;;;;;;;4949590;28;20554;-62
2022/05/17 05:59:35;;;;;;;1.80;1.10;;;;;;;;;;4949515;28;20433;-63
2022/05/17 06:02:00;;;;;;;3.33;1.40;;;;;;;;;;4949780;28;20104;-64
2022/05/17 06:04:28;;;;;;;4.38;1.20;;;;;;;;;;4949909;28;20334;-63
2022/05/17 06:06:56;;;;;;;1.98;1.40;;;;;;;;;;4949966;28;20452;-63
2022/05/17 06:09:21;;;;;;;2.55;1.42;;;;;;;;;;4949582;28;20393;-62
2022/05/17 06:11:47;;;;;;;3.03;1.45;;;;;;;;;;4949546;28;20101;-63
2022/05/17 06:14:12;;;;;;;3.17;1.40;;;;;;;;;;4932247;28;20049;-63
2022/05/17 06:16:37;;;;;;;6.10;1.35;;;;;;;;;;4949919;28;20437;-62
2022/05/17 06:19:03;;;;;;;2.25;1.33;;;;;;;;;;4949336;28;20080;-62
2022/05/17 06:21:28;;;;;;;6.07;1.20;;;;;;;;;;4949038;28;20046;-62
2022/05/17 06:23:54;;;;;;;2.08;1.48;;;;;;;;;;4935803;28;20424;-62
2022/05/17 06:26:19;;;;;;;2.85;1.30;;;;;;;;;;4953478;28;20426;-62
2022/05/17 06:28:44;;;;;;;2.17;1.25;;;;;;;;;;4953374;28;20389;-62
2022/05/17 06:31:09;;;;;;;3.13;1.30;;;;;;;;;;4954166;28;20381;-62
2022/05/17 06:33:35;;;;;;;3.28;1.35;;;;;;;;;;4953955;28;20413;-62
2022/05/17 06:36:01;;;;;;;1.65;1.10;;;;;;;;;;4953256;28;20413;-63
2022/05/17 06:38:26;;;;;;;1.67;1.00;;;;;;;;;;4953586;28;20505;-63
2022/05/17 06:40:51;;;;;;;1.85;1.10;;;;;;;;;;4954729;28;20018;-63
2022/05/17 06:43:17;;;;;;;2.33;1.02;;;;;;;;;;4953080;28;20364;-62
2022/05/17 06:45:42;;;;;;;1.65;1.20;;;;;;;;;;4953702;28;20338;-63
2022/05/17 06:48:08;;;;;;;1.55;0.90;;;;;;;;;;4952912;28;20371;-62
2022/05/17 06:50:33;;;;;;;2.45;1.35;;;;;;;;;;4953216;28;20307;-62
2022/05/17 06:52:59;;;;;;;2.72;1.50;;;;;;;;;;4952929;28;20416;-62
2022/05/17 06:55:25;;;;;;;1.90;1.15;;;;;;;;;;4952901;28;20408;-63
2022/05/17 06:57:51;;;;;;;2.25;1.27;;;;;;;;;;4953915;28;20357;-62
2022/05/17 07:00:18;;;;;;;3.45;1.33;;;;;;;;;;4953324;28;20100;-62
2022/05/17 07:02:44;;;;;;;2.33;1.02;;;;;;;;;;4954024;28;20356;-63
2022/05/17 07:05:10;;;;;;;3.45;1.63;;;;;;;;;;4952593;28;20416;-62
2022/05/17 07:07:36;;;;;;;1.90;1.15;;;;;;;;;;4952970;28;20018;-63
2022/05/17 07:15:29;;;;;;;2.33;1.23;;;;;;;;;;4952711;28;20472;-63
2022/05/17 07:17:57;;;;;;;5.50;1.30;;;;;;;;;;4952767;28;20340;-62
2022/05/17 07:20:22;;;;;;;1.90;1.35;;;;;;;;;;4951722;28;20334;-62
2022/05/17 07:22:48;;;;;;;3.60;1.20;;;;;;;;;;4952461;28;20357;-62
2022/05/17 07:25:13;;;;;;;3.08;1.30;;;;;;;;;;4952374;28;20337;-62
2022/05/17 07:27:38;;;;;;;2.80;0.80;;;;;;;;;;4953277;28;20444;-62
2022/05/17 07:30:06;;;;;;;1.80;1.08;;;;;;;;;;4934715;28;20491;-62
2022/05/17 07:32:32;;;;;;;1.15;0.93;;;;;;;;;;4952164;28;20508;-63
2022/05/17 07:34:57;;;;;;;1.90;0.98;;;;;;;;;;4951956;28;20437;-62
2022/05/17 07:37:22;;;;;;;2.03;0.98;;;;;;;;;;4934708;28;20366;-62
2022/05/17 07:39:48;;;;;;;1.52;1.00;;;;;;;;;;4951995;28;20416;-62
2022/05/17 07:42:13;;;;;;;2.45;1.30;;;;;;;;;;4953377;28;20030;-65
2022/05/17 07:44:38;;;;;;;3.20;1.33;;;;;;;;;;4952094;28;20512;-62
2022/05/17 07:47:04;;;;;;;2.05;0.93;;;;;;;;;;4952129;28;20092;-62
2022/05/17 07:49:32;;;;;;;3.97;1.00;;;;;;;;;;4952105;28;20496;-63
2022/05/17 07:51:57;;;;;;;1.50;1.23;;;;;;;;;;4951556;28;20468;-62
2022/05/17 07:54:22;;;;;;;1.30;0.95;;;;;;;;;;4951528;28;20418;-63
2022/05/17 07:56:48;;;;;;;2.00;1.10;;;;;;;;;;4952169;28;20061;-64
2022/05/17 07:59:13;;;;;;;1.60;0.90;;;;;;;;;;4951839;28;20029;-63
2022/05/17 08:01:38;;;;;;;1.67;1.00;;;;;;;;;;4951631;28;20029;-64
2022/05/17 08:04:04;;;;;;;1.08;0.90;;;;;;;;;;4952084;28;20469;-63
2022/05/17 08:06:29;;;;;;;4.38;1.38;;;;;;;;;;4952216;28;20029;-62
2022/05/17 08:08:54;;;;;;;1.60;0.93;;;;;;;;;;4951509;28;20085;-62
2022/05/17 08:11:20;;;;;;;2.85;1.40;;;;;;;;;;4949658;28;20056;-63
2022/05/17 08:13:45;;;;;;;2.15;1.15;;;;;;;;;;4951501;28;20452;-63
2022/05/17 08:16:10;;;;;;;2.33;0.90;;;;;;;;;;4950920;28;20326;-63
2022/05/17 08:18:36;;;;;;;1.80;1.20;;;;;;;;;;4951509;28;20416;-63
2022/05/17 08:21:01;;;;;;;1.58;0.88;;;;;;;;;;4951247;28;20069;-63
2022/05/17 08:23:26;;;;;;;1.40;0.82;;;;;;;;;;4951210;28;20337;-62
2022/05/17 08:28:36;;;;;;;1.92;0.95;;;;;;;;;;4952042;28;20488;-62
2022/05/17 08:31:01;;;;;;;3.38;1.00;;;;;;;;;;4952628;28;20453;-62
2022/05/17 08:33:27;;;;;;;2.30;1.02;;;;;;;;;;4952598;28;20069;-63
2022/05/17 08:36:01;;;;;;;1.55;0.93;;;;;;;;;;4951127;28;20121;-63
2022/05/17 08:38:34;;;;;;;1.13;0.80;;;;;;;;;;4951962;28;20440;-63
2022/05/17 08:41:09;;;;;;;1.27;1.13;;;;;;;;;;4951632;28;20513;-62
2022/05/17 08:43:52;;;;;;;2.58;0.77;;;;;;;;;;4933409;28;20373;-62
2022/05/17 08:46:34;;;;;;;1.48;1.23;;;;;;;;;;4949955;28;20373;-62
2022/05/17 08:49:19;;;;;;;1.17;0.93;;;;;;;;;;4950809;28;20420;-63
2022/05/17 08:51:52;;;;;;;4.35;1.23;;;;;;;;;;4950565;28;20430;-62
2022/05/17 08:54:21;;;;;;;1.52;0.75;;;;;;;;;;4933602;28;20480;-62
2022/05/17 08:56:55;;;;;;;1.42;1.00;;;;;;;;;;4932977;28;20499;-62
2022/05/17 08:59:23;;;;;;;1.60;1.05;;;;;;;;;;4933937;28;20457;-62
2022/05/17 09:02:12;;;;;;;1.35;0.77;;;;;;;;;;4951050;28;20030;-62
2022/05/17 09:05:00;;;;;;;1.63;0.98;;;;;;;;;;4931172;28;20457;-62
2022/05/17 09:07:53;;;;;;;1.95;0.90;;;;;;;;;;5087359;27;20855;-64
2022/05/17 09:10:34;;;;;;;1.88;1.10;;;;;;;;;;5048377;28;20370;-63
2022/05/17 09:13:06;;;;;;;2.42;1.17;;;;;;;;;;5048642;28;20019;-65
2022/05/17 09:15:31;;;;;;;1.10;0.85;;;;;;;;;;5048824;28;20481;-66
2022/05/17 09:17:59;;;;;;;2.85;1.00;;;;;;;;;;5066350;28;20470;-64
2022/05/17 09:20:30;;;;;;;1.15;0.82;;;;;;;;;;5048912;28;20380;-63
2022/05/17 09:22:55;;;;;;;1.30;0.82;;;;;;;;;;5066321;28;20331;-64
2022/05/17 09:25:26;;;;;;;2.28;0.80;;;;;;;;;;5066571;28;20371;-65
2022/05/17 09:27:53;;;;;;;1.70;0.80;;;;;;;;;;5066406;28;20505;-63
2022/05/17 09:30:21;;;;;;;3.05;1.20;;;;;;;;;;5066205;28;20107;-64
2022/05/17 09:32:47;;;;;;;3.45;1.30;;;;;;;;;;5066500;28;20409;-65
2022/05/17 09:35:18;;;;;;;1.65;1.17;;;;;;;;;;5047893;28;20447;-64
2022/05/17 09:37:46;;;;;;;7.10;1.20;;;;;;;;;;5066095;28;20388;-63
2022/05/17 09:40:14;;;;;;;2.35;1.00;;;;;;;;;;5065954;28;20373;-64
2022/05/17 09:42:53;;;;;;;0.80;0.60;;;;;;;;;;5067164;28;20050;-64
2022/05/17 09:45:20;;;;;;;1.92;1.20;;;;;;;;;;5047040;28;20500;-64
2022/05/17 09:47:57;;;;;;;1.88;0.75;;;;;;;;;;5065680;28;20427;-64
2022/05/17 09:53:14;;;;;;;1.33;0.80;;;;;;;;;;5066654;28;20329;-65
2022/05/17 09:55:43;;;;;;;1.00;0.77;;;;;;;;;;5066030;28;20425;-64
2022/05/17 09:58:12;;;;;;;;;;;;;;;;;;5048884;28;20442;-65
2022/05/17 10:00:49;;;;;;;1.48;0.88;;;;;;;;;;5066926;28;20214;-64
2022/05/17 10:03:15;;;;;;;1.27;0.80;;;;;;;;;;5065727;28;20397;-65
2022/05/17 10:05:40;;;;;;;0.90;0.70;;;;;;;;;;5065181;27;20361;-64
2022/05/17 10:08:28;;;;;;;1.55;0.70;;;;;;;;;;5065904;28;20330;-64
2022/05/17 10:11:11;;;;;;;1.25;0.93;;;;;;;;;;5015778;28;20093;-65
2022/05/17 10:13:45;;;;;;;1.25;0.85;;;;;;;;;;5065274;28;20486;-64
2022/05/17 10:16:28;;;;;;;2.97;1.45;;;;;;;;;;5066729;28;20415;-65
2022/05/17 10:18:58;;;;;;;1.30;0.88;;;;;;;;;;5053294;28;20370;-65
2022/05/17 10:21:33;;;;;;;1.38;0.90;;;;;;;;;;5033547;28;20097;-65
2022/05/17 10:24:16;;;;;;;1.17;0.80;;;;;;;;;;5051777;28;20347;-63
2022/05/17 10:26:48;;;;;;;2.22;1.20;;;;;;;;;;5052229;28;20446;-65
2022/05/17 10:29:21;;;;;;;1.83;0.75;;;;;;;;;;5051870;28;20024;-62
2022/05/17 10:32:05;;;;;;;1.48;1.05;;;;;;;;;;5051513;28;20322;-63
2022/05/17 10:34:49;;;;;;;0.85;0.75;;;;;;;;;;5033642;28;20446;-62
2022/05/17 10:37:22;;;;;;;1.42;0.60;;;;;;;;;;5051776;28;20466;-62
2022/05/17 10:39:50;;;;;;;1.48;0.70;;;;;;;;;;5033083;28;20451;-61
2022/05/17 10:42:16;;;;;;;1.88;1.35;;;;;;;;;;5052813;28;20389;-61
2022/05/17 10:44:47;;;;;;;1.02;0.60;;;;;;;;;;5032787;28;20372;-63
2022/05/17 10:47:33;;;;;;;5.65;0.77;;;;;;;;;;5033173;28;20517;-62
2022/05/17 10:49:58;;;;;;;0.77;0.60;;;;;;;;;;5034369;28;20327;-62
2022/05/17 10:52:48;;;;;;;1.23;0.90;;;;;;;;;;5050931;28;20338;-63
2022/05/17 10:55:42;;;;;;;1.23;0.82;;;;;;;;;;5033081;28;20431;-62
2022/05/17 10:58:33;;;;;;;5.80;1.30;;;;;;;;;;5050905;28;20084;-62
2022/05/17 11:01:09;;;;;;;1.90;0.75;;;;;;;;;;5012314;28;20390;-63
2022/05/17 11:03:53;;;;;;;1.52;0.80;;;;;;;;;;5050979;28;20393;-63
2022/05/17 11:06:38;;;;;;;0.65;0.60;;;;;;;;;;5028422;28;20135;-63
2022/05/17 11:09:14;;;;;;;1.02;0.80;;;;;;;;;;5031811;28;20427;-62
2022/05/17 11:11:45;;;;;;;4.43;1.10;;;;;;;;;;5030831;28;20309;-63
2022/05/17 11:14:31;;;;;;;4.45;1.00;;;;;;;;;;5030704;28;20397;-64
2022/05/17 11:17:35;;;;;;;3.08;0.88;;;;;;;;;;5030389;28;20358;-63
2022/05/17 11:20:13;;;;;;;1.83;1.02;;;;;;;;;;5030667;28;20517;-64
2022/05/17 11:23:09;;;;;;;1.75;0.93;;;;;;;;;;5031204;28;20427;-64
2022/05/17 11:26:09;;;;;;;1.75;0.90;;;;;;;;;;5030265;28;20383;-63
2022/05/17 11:29:15;;;;;;;1.08;0.82;;;;;;;;;;5030281;28;20502;-65
2022/05/17 11:31:54;;;;;;;2.00;0.88;;;;;;;;;;4980606;28;20451;-65
2022/05/17 11:34:22;;;;;;;2.08;0.90;;;;;;;;;;5030340;28;20489;-64
2022/05/17 11:36:49;;;;;;;3.55;1.00;;;;;;;;;;5030431;28;20447;-64
2022/05/17 11:39:40;;;;;;;1.25;0.65;;;;;;;;;;5028552;28;20419;-64
2022/05/17 11:42:07;;;;;;;1.13;0.82;;;;;;;;;;5030214;28;20423;-65
2022/05/17 11:44:46;;;;;;;1.17;0.90;;;;;;;;;;5030631;28;20435;-64
2022/05/17 11:47:33;;;;;;;1.77;0.82;;;;;;;;;;5029076;28;20378;-64
2022/05/17 11:50:18;;;;;;;1.63;1.00;;;;;;;;;;5030307;28;20407;-63
2022/05/17 11:52:46;;;;;;;1.92;1.13;;;;;;;;;;5030921;28;20449;-65
2022/05/17 11:55:16;;;;;;;1.52;0.80;;;;;;;;;;5029888;28;20415;-64
2022/05/17 11:57:43;;;;;;;1.92;1.10;;;;;;;;;;5028918;28;20433;-62
2022/05/17 12:00:28;;;;;;;0.95;0.70;;;;;;;;;;5030930;28;20328;-62
2022/05/17 12:02:59;;;;;;;0.80;0.65;;;;;;;;;;5029829;28;20427;-64
2022/05/17 12:05:47;;;;;;;0.82;0.65;;;;;;;;;;5029746;28;20409;-61
2022/05/17 12:08:37;;;;;;;0.63;0.60;;;;;;;;;;5049756;28;20435;-63
2022/05/17 12:11:08;;;;;;;1.60;0.70;;;;;;;;;;5050162;28;20376;-61
2022/05/17 12:13:41;;;;;;;1.92;0.60;;;;;;;;;;5050026;28;20319;-64
2022/05/17 12:16:08;;;;;;;2.60;0.73;;;;;;;;;;5031441;28;20027;-62
2022/05/17 12:19:22;;;;;;;1.60;0.80;;;;;;;;;;5031290;28;20031;-63
2022/05/17 12:21:58;;;;;;;2.58;0.85;;;;;;;;;;4959777;28;20449;-62
2022/05/17 12:24:52;;;;;;;1.17;0.80;;;;;;;;;;5050469;28;20302;-62
2022/05/17 12:27:24;;;;;;;1.88;0.80;;;;;;;;;;5049149;28;20458;-62
2022/05/17 12:33:00;;;;;;;3.25;0.88;;;;;;;;;;5050467;28;20499;-63
2022/05/17 12:35:27;;;;;;;1.15;0.75;;;;;;;;;;5049330;28;20438;-62
2022/05/17 12:37:52;;;;;;;2.33;1.00;;;;;;;;;;5029188;28;20396;-62
2022/05/17 12:43:10;;;;;;;1.73;1.13;;;;;;;;;;5029829;28;20063;-62
2022/05/17 12:45:43;;;;;;;0.68;0.60;;;;;;;;;;5011484;28;20444;-62
2022/05/17 12:48:16;;;;;;;2.38;0.90;;;;;;;;;;5028891;28;20346;-63
2022/05/17 12:50:52;;;;;;;1.15;0.95;;;;;;;;;;5029103;28;20373;-64
2022/05/17 12:53:24;;;;;;;0.77;0.73;;;;;;;;;;5029276;28;20028;-65
2022/05/17 12:56:29;;;;;;;2.08;1.00;;;;;;;;;;5028615;28;20488;-64
2022/05/17 12:58:56;;;;;;;0.90;0.70;;;;;;;;;;5010872;28;20017;-65
2022/05/17 13:01:23;;;;;;;1.63;0.75;;;;;;;;;;5029126;28;20510;-64
2022/05/17 13:03:49;;;;;;;0.95;0.80;;;;;;;;;;5028983;28;20411;-63
2022/05/17 13:06:15;;;;;;;0.75;0.70;;;;;;;;;;5028207;28;20340;-64
2022/05/17 13:08:41;;;;;;;0.70;0.70;;;;;;;;;;5028733;28;20497;-62
2022/05/17 13:11:26;;;;;;;0.70;0.70;;;;;;;;;;5028918;28;20372;-62
2022/05/17 13:14:22;;;;;;;1.13;0.70;;;;;;;;;;5029174;28;20351;-62
2022/05/17 13:16:49;;;;;;;1.10;0.60;;;;;;;;;;4993217;28;20336;-61
2022/05/17 13:19:16;;;;;;;6.00;0.90;;;;;;;;;;5010675;28;20337;-62
2022/05/17 13:21:45;;;;;;;0.68;0.57;;;;;;;;;;5010746;28;20327;-63
2022/05/17 13:24:45;;;;;;;1.73;1.10;;;;;;;;;;5010829;28;20083;-62
2022/05/17 13:27:36;;;;;;;1.95;0.70;;;;;;;;;;5024066;28;20451;-62
2022/05/17 13:30:22;;;;;;;1.98;0.98;;;;;;;;;;5008176;28;20029;-62
2022/05/17 13:32:49;;;;;;;0.93;0.60;;;;;;;;;;5008164;28;20442;-62
2022/05/17 13:35:24;;;;;;;0.88;0.70;;;;;;;;;;4990771;28;20089;-62
2022/05/17 13:38:05;;;;;;;1.80;0.75;;;;;;;;;;5008171;28;20356;-62
2022/05/17 13:40:44;;;;;;;0.80;0.70;;;;;;;;;;5009664;28;20459;-62
2022/05/17 13:43:18;;;;;;;;;;;;;;;;;;5008864;28;20476;-62
2022/05/17 13:46:04;;;;;;;1.55;0.80;;;;;;;;;;5007895;28;20279;-63
2022/05/17 13:48:30;;;;;;;3.05;0.82;;;;;;;;;;5008796;28;20384;-63
2022/05/17 13:50:58;;;;;;;2.22;0.70;;;;;;;;;;4990723;28;20431;-63
2022/05/17 13:53:25;;;;;;;0.50;0.50;;;;;;;;;;4992525;28;20024;-62
2022/05/17 13:55:51;;;;;;;2.03;0.50;;;;;;;;;;4995706;28;20479;-63
2022/05/17 13:58:17;;;;;;;0.73;0.60;;;;;;;;;;5011605;28;20519;-61
2022/05/17 14:01:27;;;;;;;2.08;1.58;;;;;;;;;;5012114;28;20036;-62
2022/05/17 14:04:31;;;;;;;1.95;0.80;;;;;;;;;;4950209;28;20412;-62
2022/05/17 14:07:01;;;;;;;1.27;0.68;;;;;;;;;;4911515;28;20077;-62
2022/05/17 14:12:18;;;;;;;1.08;0.60;;;;;;;;;;4992857;28;20463;-62
2022/05/17 14:14:45;;;;;;;0.40;0.38;;;;;;;;;;4991860;28;20440;-62
2022/05/17 14:17:18;;;;;;;0.60;0.60;;;;;;;;;;4992948;28;20310;-62
2022/05/17 14:19:50;;;;;;;0.68;0.55;;;;;;;;;;4992193;28;20432;-63
2022/05/17 14:22:17;;;;;;;1.45;0.60;;;;;;;;;;4991541;28;20454;-65
2022/05/17 14:24:42;;;;;;;2.38;0.77;;;;;;;;;;4990425;28;20337;-66
2022/05/17 14:27:07;;;;;;;1.40;0.80;;;;;;;;;;4991698;28;20352;-64
2022/05/17 14:29:34;;;;;;;3.53;0.70;;;;;;;;;;4991764;28;20366;-65
2022/05/17 14:32:01;;;;;;;2.30;0.93;;;;;;;;;;4991809;28;20396;-66
2022/05/17 14:34:27;;;;;;;2.22;1.00;;;;;;;;;;4993055;28;20470;-65
2022/05/17 14:36:53;;;;;;;1.10;0.65;;;;;;;;;;4989770;28;20390;-64
2022/05/17 14:39:19;;;;;;;1.75;0.82;;;;;;;;;;4991431;28;20531;-64
2022/05/17 14:41:50;;;;;;;1.00;0.68;;;;;;;;;;4992654;28;20098;-64
2022/05/17 14:44:16;;;;;;;2.25;1.05;;;;;;;;;;4991277;28;20430;-64
2022/05/17 14:46:41;;;;;;;5.53;0.63;;;;;;;;;;4990996;28;20353;-64
2022/05/17 14:49:10;;;;;;;0.60;0.50;;;;;;;;;;4991302;28;20359;-64
2022/05/17 14:51:35;;;;;;;0.85;0.57;;;;;;;;;;4989710;28;20490;-64
2022/05/17 14:54:01;;;;;;;1.15;0.63;;;;;;;;;;4991241;28;20436;-64
2022/05/17 14:56:26;;;;;;;0.80;0.68;;;;;;;;;;4991733;28;20344;-64
2022/05/17 14:58:51;;;;;;;1.00;0.52;;;;;;;;;;4991114;28;20398;-64
2022/05/17 15:01:19;;;;;;;3.20;1.00;;;;;;;;;;4991089;28;20443;-64
2022/05/17 15:03:50;;;;;;;1.20;0.67;;;;;;;;;;4991572;28;20439;-64
2022/05/17 15:06:16;;;;;;;1.48;0.80;;;;;;;;;;4988832;28;20352;-64
2022/05/17 15:08:45;;;;;;;2.72;0.55;;;;;;;;;;5005482;28;20029;-64
2022/05/17 15:11:11;;;;;;;;;;;;;;;;;;4993049;28;20390;-64
2022/05/17 15:13:39;;;;;;;1.33;0.60;;;;;;;;;;4991102;28;20332;-64
2022/05/17 15:16:04;;;;;;;1.15;0.70;;;;;;;;;;4990936;28;20444;-65
2022/05/17 15:18:35;;;;;;;3.03;0.82;;;;;;;;;;4992791;28;20400;-65
2022/05/17 15:21:00;;;;;;;1.10;0.50;;;;;;;;;;4988922;28;20440;-64